sensor_id;sensor_type;location;lat;lon;timestamp;P1;durP1;ratioP1;P2;durP2;ratioP2
33421;SDS011;19763;55.798;37.782;2022-12-07T00:01:07;7.43;;;4.68;;
33421;SDS011;19763;55.798;37.782;2022-12-07T00:03:38;7.85;;;4.13;;
33421;SDS011;19763;55.798;37.782;2022-12-07T00:06:05;9.48;;;4.10;;
33421;SDS011;19763;55.798;37.782;2022-12-07T00:08:32;10.85;;;4.30;;
33421;SDS011;19763;55.798;37.782;2022-12-07T00:11:03;9.73;;;4.35;;
33421;SDS011;19763;55.798;37.782;2022-12-07T00:13:30;7.13;;;3.90;;
33421;SDS011;19763;55.798;37.782;2022-12-07T00:16:04;7.35;;;3.85;;
33421;SDS011;19763;55.798;37.782;2022-12-07T00:18:31;8.25;;;4.50;;
33421;SDS011;19763;55.798;37.782;2022-12-07T00:20:59;6.38;;;3.92;;
33421;SDS011;19763;55.798;37.782;2022-12-07T00:23:29;8.67;;;4.13;;
33421;SDS011;19763;55.798;37.782;2022-12-07T00:25:55;6.85;;;4.70;;
33421;SDS011;19763;55.798;37.782;2022-12-07T00:28:21;8.27;;;4.50;;
33421;SDS011;19763;55.798;37.782;2022-12-07T00:30:46;8.90;;;5.10;;
33421;SDS011;19763;55.798;37.782;2022-12-07T00:33:12;8.63;;;4.85;;
33421;SDS011;19763;55.798;37.782;2022-12-07T00:35:37;8.32;;;4.20;;
33421;SDS011;19763;55.798;37.782;2022-12-07T00:38:03;10.55;;;4.82;;
33421;SDS011;19763;55.798;37.782;2022-12-07T00:40:28;7.13;;;4.88;;
33421;SDS011;19763;55.798;37.782;2022-12-07T00:42:54;8.13;;;4.88;;
33421;SDS011;19763;55.798;37.782;2022-12-07T00:45:20;10.68;;;4.57;;
33421;SDS011;19763;55.798;37.782;2022-12-07T00:47:45;8.93;;;4.55;;
33421;SDS011;19763;55.798;37.782;2022-12-07T00:50:11;10.20;;;5.35;;
33421;SDS011;19763;55.798;37.782;2022-12-07T00:52:36;8.65;;;4.82;;
33421;SDS011;19763;55.798;37.782;2022-12-07T00:55:02;13.40;;;4.82;;
33421;SDS011;19763;55.798;37.782;2022-12-07T00:57:30;7.95;;;4.20;;
33421;SDS011;19763;55.798;37.782;2022-12-07T00:59:56;11.82;;;5.30;;
33421;SDS011;19763;55.798;37.782;2022-12-07T01:02:22;6.82;;;4.20;;
33421;SDS011;19763;55.798;37.782;2022-12-07T01:04:48;8.50;;;4.68;;
33421;SDS011;19763;55.798;37.782;2022-12-07T01:07:14;10.45;;;4.80;;
33421;SDS011;19763;55.798;37.782;2022-12-07T01:09:39;9.60;;;4.63;;
33421;SDS011;19763;55.798;37.782;2022-12-07T01:12:05;10.60;;;5.50;;
33421;SDS011;19763;55.798;37.782;2022-12-07T01:14:31;11.65;;;5.47;;
33421;SDS011;19763;55.798;37.782;2022-12-07T01:16:56;7.50;;;4.88;;
33421;SDS011;19763;55.798;37.782;2022-12-07T01:19:22;7.07;;;4.93;;
33421;SDS011;19763;55.798;37.782;2022-12-07T01:21:47;8.55;;;5.60;;
33421;SDS011;19763;55.798;37.782;2022-12-07T01:24:13;9.13;;;5.05;;
33421;SDS011;19763;55.798;37.782;2022-12-07T01:26:39;9.65;;;5.47;;
33421;SDS011;19763;55.798;37.782;2022-12-07T01:29:04;10.70;;;5.40;;
33421;SDS011;19763;55.798;37.782;2022-12-07T01:31:30;11.15;;;5.22;;
33421;SDS011;19763;55.798;37.782;2022-12-07T01:33:56;10.18;;;5.63;;
33421;SDS011;19763;55.798;37.782;2022-12-07T01:36:26;9.23;;;6.13;;
33421;SDS011;19763;55.798;37.782;2022-12-07T01:38:56;8.90;;;5.25;;
33421;SDS011;19763;55.798;37.782;2022-12-07T01:41:24;11.82;;;5.43;;
33421;SDS011;19763;55.798;37.782;2022-12-07T01:46:54;10.32;;;6.13;;
33421;SDS011;19763;55.798;37.782;2022-12-07T01:51:51;8.80;;;5.50;;
33421;SDS011;19763;55.798;37.782;2022-12-07T01:54:20;13.73;;;6.03;;
33421;SDS011;19763;55.798;37.782;2022-12-07T01:56:49;10.48;;;5.93;;
33421;SDS011;19763;55.798;37.782;2022-12-07T02:01:45;11.63;;;5.80;;
33421;SDS011;19763;55.798;37.782;2022-12-07T02:04:11;10.73;;;6.32;;
33421;SDS011;19763;55.798;37.782;2022-12-07T02:06:37;9.73;;;5.63;;
33421;SDS011;19763;55.798;37.782;2022-12-07T02:09:03;11.18;;;6.30;;
33421;SDS011;19763;55.798;37.782;2022-12-07T02:11:30;7.47;;;5.30;;
33421;SDS011;19763;55.798;37.782;2022-12-07T02:13:56;12.68;;;6.20;;
33421;SDS011;19763;55.798;37.782;2022-12-07T02:16:41;12.07;;;5.88;;
33421;SDS011;19763;55.798;37.782;2022-12-07T02:21:48;8.50;;;5.30;;
33421;SDS011;19763;55.798;37.782;2022-12-07T02:32:40;11.80;;;5.63;;
33421;SDS011;19763;55.798;37.782;2022-12-07T02:35:20;10.45;;;6.05;;
33421;SDS011;19763;55.798;37.782;2022-12-07T02:40:54;8.65;;;4.90;;
33421;SDS011;19763;55.798;37.782;2022-12-07T02:43:27;10.40;;;5.45;;
33421;SDS011;19763;55.798;37.782;2022-12-07T02:45:58;9.05;;;5.63;;
33421;SDS011;19763;55.798;37.782;2022-12-07T02:48:29;12.45;;;5.95;;
33421;SDS011;19763;55.798;37.782;2022-12-07T02:50:58;9.65;;;5.72;;
33421;SDS011;19763;55.798;37.782;2022-12-07T02:53:37;10.13;;;5.43;;
33421;SDS011;19763;55.798;37.782;2022-12-07T02:56:05;9.25;;;5.18;;
33421;SDS011;19763;55.798;37.782;2022-12-07T02:58:36;10.80;;;5.93;;
33421;SDS011;19763;55.798;37.782;2022-12-07T03:04:06;11.00;;;5.93;;
33421;SDS011;19763;55.798;37.782;2022-12-07T03:06:47;11.23;;;5.68;;
33421;SDS011;19763;55.798;37.782;2022-12-07T03:09:20;10.55;;;5.60;;
33421;SDS011;19763;55.798;37.782;2022-12-07T03:12:22;9.13;;;5.38;;
33421;SDS011;19763;55.798;37.782;2022-12-07T03:15:01;11.02;;;5.90;;
33421;SDS011;19763;55.798;37.782;2022-12-07T03:17:49;10.52;;;6.10;;
33421;SDS011;19763;55.798;37.782;2022-12-07T03:20:17;9.40;;;5.13;;
33421;SDS011;19763;55.798;37.782;2022-12-07T03:22:47;10.80;;;5.80;;
33421;SDS011;19763;55.798;37.782;2022-12-07T03:25:13;9.80;;;5.80;;
33421;SDS011;19763;55.798;37.782;2022-12-07T03:27:45;13.27;;;6.63;;
33421;SDS011;19763;55.798;37.782;2022-12-07T03:30:24;10.93;;;5.95;;
33421;SDS011;19763;55.798;37.782;2022-12-07T03:32:57;11.93;;;6.03;;
33421;SDS011;19763;55.798;37.782;2022-12-07T03:35:31;9.30;;;5.65;;
33421;SDS011;19763;55.798;37.782;2022-12-07T03:40:45;10.65;;;6.60;;
33421;SDS011;19763;55.798;37.782;2022-12-07T03:43:16;11.05;;;6.15;;
33421;SDS011;19763;55.798;37.782;2022-12-07T03:45:44;9.57;;;5.55;;
33421;SDS011;19763;55.798;37.782;2022-12-07T03:51:45;10.77;;;6.07;;
33421;SDS011;19763;55.798;37.782;2022-12-07T03:54:31;10.25;;;6.72;;
33421;SDS011;19763;55.798;37.782;2022-12-07T03:57:06;14.30;;;7.03;;
33421;SDS011;19763;55.798;37.782;2022-12-07T03:59:34;12.90;;;7.03;;
33421;SDS011;19763;55.798;37.782;2022-12-07T04:02:04;14.48;;;7.00;;
33421;SDS011;19763;55.798;37.782;2022-12-07T04:04:30;11.45;;;7.13;;
33421;SDS011;19763;55.798;37.782;2022-12-07T04:06:56;13.70;;;7.25;;
33421;SDS011;19763;55.798;37.782;2022-12-07T04:09:22;14.18;;;7.55;;
33421;SDS011;19763;55.798;37.782;2022-12-07T04:11:47;11.98;;;6.72;;
33421;SDS011;19763;55.798;37.782;2022-12-07T04:14:13;15.05;;;6.72;;
33421;SDS011;19763;55.798;37.782;2022-12-07T04:19:15;11.63;;;6.47;;
33421;SDS011;19763;55.798;37.782;2022-12-07T04:21:41;10.50;;;6.65;;
33421;SDS011;19763;55.798;37.782;2022-12-07T04:24:06;12.65;;;7.13;;
33421;SDS011;19763;55.798;37.782;2022-12-07T04:26:32;12.57;;;6.38;;
33421;SDS011;19763;55.798;37.782;2022-12-07T04:28:58;9.75;;;6.28;;
33421;SDS011;19763;55.798;37.782;2022-12-07T04:31:23;11.60;;;6.30;;
33421;SDS011;19763;55.798;37.782;2022-12-07T04:33:49;14.75;;;6.50;;
33421;SDS011;19763;55.798;37.782;2022-12-07T04:36:14;10.45;;;6.53;;
33421;SDS011;19763;55.798;37.782;2022-12-07T04:38:40;13.32;;;6.30;;
33421;SDS011;19763;55.798;37.782;2022-12-07T04:41:06;12.20;;;6.78;;
33421;SDS011;19763;55.798;37.782;2022-12-07T04:43:33;10.25;;;6.25;;
33421;SDS011;19763;55.798;37.782;2022-12-07T04:45:59;11.90;;;6.72;;
33421;SDS011;19763;55.798;37.782;2022-12-07T04:48:24;10.90;;;6.43;;
33421;SDS011;19763;55.798;37.782;2022-12-07T04:50:50;12.38;;;6.50;;
33421;SDS011;19763;55.798;37.782;2022-12-07T04:53:16;10.48;;;6.75;;
33421;SDS011;19763;55.798;37.782;2022-12-07T04:55:42;11.55;;;6.68;;
33421;SDS011;19763;55.798;37.782;2022-12-07T04:58:07;12.35;;;7.47;;
33421;SDS011;19763;55.798;37.782;2022-12-07T05:00:33;10.85;;;7.25;;
33421;SDS011;19763;55.798;37.782;2022-12-07T05:02:58;12.73;;;6.45;;
33421;SDS011;19763;55.798;37.782;2022-12-07T05:05:24;13.75;;;7.00;;
33421;SDS011;19763;55.798;37.782;2022-12-07T05:07:50;14.32;;;8.07;;
33421;SDS011;19763;55.798;37.782;2022-12-07T05:10:15;14.35;;;6.93;;
33421;SDS011;19763;55.798;37.782;2022-12-07T05:12:41;12.18;;;7.22;;
33421;SDS011;19763;55.798;37.782;2022-12-07T05:15:07;12.05;;;6.80;;
33421;SDS011;19763;55.798;37.782;2022-12-07T05:17:33;10.77;;;7.07;;
33421;SDS011;19763;55.798;37.782;2022-12-07T05:19:59;11.90;;;6.63;;
33421;SDS011;19763;55.798;37.782;2022-12-07T05:22:24;12.68;;;7.75;;
33421;SDS011;19763;55.798;37.782;2022-12-07T05:24:53;15.20;;;7.63;;
33421;SDS011;19763;55.798;37.782;2022-12-07T05:27:19;11.98;;;7.05;;
33421;SDS011;19763;55.798;37.782;2022-12-07T05:29:45;14.00;;;7.80;;
33421;SDS011;19763;55.798;37.782;2022-12-07T05:32:11;11.48;;;7.35;;
33421;SDS011;19763;55.798;37.782;2022-12-07T05:34:36;12.93;;;8.07;;
33421;SDS011;19763;55.798;37.782;2022-12-07T05:37:02;13.18;;;7.00;;
33421;SDS011;19763;55.798;37.782;2022-12-07T05:39:28;13.48;;;7.90;;
33421;SDS011;19763;55.798;37.782;2022-12-07T05:41:53;17.55;;;8.50;;
33421;SDS011;19763;55.798;37.782;2022-12-07T05:44:38;11.95;;;7.32;;
33421;SDS011;19763;55.798;37.782;2022-12-07T05:47:04;14.68;;;8.10;;
33421;SDS011;19763;55.798;37.782;2022-12-07T05:49:30;12.43;;;7.15;;
33421;SDS011;19763;55.798;37.782;2022-12-07T05:51:56;12.07;;;7.60;;
33421;SDS011;19763;55.798;37.782;2022-12-07T05:54:21;13.70;;;8.40;;
33421;SDS011;19763;55.798;37.782;2022-12-07T05:56:47;15.88;;;7.93;;
33421;SDS011;19763;55.798;37.782;2022-12-07T05:59:12;13.32;;;7.75;;
33421;SDS011;19763;55.798;37.782;2022-12-07T06:02:05;12.10;;;7.70;;
33421;SDS011;19763;55.798;37.782;2022-12-07T06:04:33;16.20;;;8.85;;
33421;SDS011;19763;55.798;37.782;2022-12-07T06:07:00;15.68;;;8.50;;
33421;SDS011;19763;55.798;37.782;2022-12-07T06:09:26;15.15;;;8.93;;
33421;SDS011;19763;55.798;37.782;2022-12-07T06:11:53;13.88;;;7.63;;
33421;SDS011;19763;55.798;37.782;2022-12-07T06:14:38;14.85;;;8.32;;
33421;SDS011;19763;55.798;37.782;2022-12-07T06:17:04;14.95;;;9.45;;
33421;SDS011;19763;55.798;37.782;2022-12-07T06:19:29;15.73;;;8.68;;
33421;SDS011;19763;55.798;37.782;2022-12-07T06:21:55;14.07;;;8.70;;
33421;SDS011;19763;55.798;37.782;2022-12-07T06:24:21;14.63;;;8.25;;
33421;SDS011;19763;55.798;37.782;2022-12-07T06:26:47;16.75;;;9.60;;
33421;SDS011;19763;55.798;37.782;2022-12-07T06:29:13;15.65;;;9.82;;
33421;SDS011;19763;55.798;37.782;2022-12-07T06:31:40;16.90;;;9.50;;
33421;SDS011;19763;55.798;37.782;2022-12-07T06:34:08;16.33;;;8.88;;
33421;SDS011;19763;55.798;37.782;2022-12-07T06:36:36;16.05;;;8.93;;
33421;SDS011;19763;55.798;37.782;2022-12-07T06:39:02;15.75;;;9.15;;
33421;SDS011;19763;55.798;37.782;2022-12-07T06:41:28;16.85;;;9.23;;
33421;SDS011;19763;55.798;37.782;2022-12-07T06:43:54;16.40;;;8.75;;
33421;SDS011;19763;55.798;37.782;2022-12-07T06:46:20;17.90;;;9.40;;
33421;SDS011;19763;55.798;37.782;2022-12-07T06:48:45;19.17;;;8.80;;
33421;SDS011;19763;55.798;37.782;2022-12-07T06:51:11;13.20;;;8.48;;
33421;SDS011;19763;55.798;37.782;2022-12-07T06:53:37;15.50;;;9.05;;
33421;SDS011;19763;55.798;37.782;2022-12-07T06:56:03;16.02;;;9.52;;
33421;SDS011;19763;55.798;37.782;2022-12-07T06:58:29;16.23;;;9.25;;
33421;SDS011;19763;55.798;37.782;2022-12-07T07:00:55;13.55;;;8.95;;
33421;SDS011;19763;55.798;37.782;2022-12-07T07:03:21;17.92;;;9.25;;
33421;SDS011;19763;55.798;37.782;2022-12-07T07:05:46;13.43;;;7.47;;
33421;SDS011;19763;55.798;37.782;2022-12-07T07:08:12;17.73;;;9.05;;
33421;SDS011;19763;55.798;37.782;2022-12-07T07:10:38;16.23;;;9.20;;
33421;SDS011;19763;55.798;37.782;2022-12-07T07:13:04;16.60;;;9.23;;
33421;SDS011;19763;55.798;37.782;2022-12-07T07:15:31;17.02;;;9.05;;
33421;SDS011;19763;55.798;37.782;2022-12-07T07:17:57;15.50;;;9.50;;
33421;SDS011;19763;55.798;37.782;2022-12-07T07:20:23;16.05;;;8.45;;
33421;SDS011;19763;55.798;37.782;2022-12-07T07:22:48;18.45;;;9.80;;
33421;SDS011;19763;55.798;37.782;2022-12-07T07:25:14;15.05;;;8.77;;
33421;SDS011;19763;55.798;37.782;2022-12-07T07:27:40;19.40;;;9.90;;
33421;SDS011;19763;55.798;37.782;2022-12-07T07:30:06;17.02;;;9.57;;
33421;SDS011;19763;55.798;37.782;2022-12-07T07:32:32;16.38;;;8.93;;
33421;SDS011;19763;55.798;37.782;2022-12-07T07:34:58;16.75;;;9.93;;
33421;SDS011;19763;55.798;37.782;2022-12-07T07:37:23;15.85;;;9.65;;
33421;SDS011;19763;55.798;37.782;2022-12-07T07:39:49;15.07;;;9.32;;
33421;SDS011;19763;55.798;37.782;2022-12-07T07:42:15;17.23;;;9.02;;
33421;SDS011;19763;55.798;37.782;2022-12-07T07:44:40;15.60;;;8.80;;
33421;SDS011;19763;55.798;37.782;2022-12-07T07:47:06;14.52;;;8.82;;
33421;SDS011;19763;55.798;37.782;2022-12-07T07:49:32;15.55;;;9.48;;
33421;SDS011;19763;55.798;37.782;2022-12-07T07:51:57;17.35;;;8.70;;
33421;SDS011;19763;55.798;37.782;2022-12-07T07:54:23;15.95;;;9.30;;
33421;SDS011;19763;55.798;37.782;2022-12-07T07:56:49;14.75;;;8.82;;
33421;SDS011;19763;55.798;37.782;2022-12-07T07:59:15;13.80;;;8.65;;
33421;SDS011;19763;55.798;37.782;2022-12-07T08:01:41;16.38;;;9.40;;
33421;SDS011;19763;55.798;37.782;2022-12-07T08:04:07;16.73;;;9.13;;
33421;SDS011;19763;55.798;37.782;2022-12-07T08:06:32;15.57;;;9.10;;
33421;SDS011;19763;55.798;37.782;2022-12-07T08:08:58;13.93;;;9.00;;
33421;SDS011;19763;55.798;37.782;2022-12-07T08:11:24;13.30;;;9.05;;
33421;SDS011;19763;55.798;37.782;2022-12-07T08:13:49;13.40;;;9.18;;
33421;SDS011;19763;55.798;37.782;2022-12-07T08:16:15;17.55;;;8.25;;
33421;SDS011;19763;55.798;37.782;2022-12-07T08:18:42;14.60;;;8.65;;
33421;SDS011;19763;55.798;37.782;2022-12-07T08:21:09;14.63;;;8.38;;
33421;SDS011;19763;55.798;37.782;2022-12-07T08:23:37;14.60;;;9.02;;
33421;SDS011;19763;55.798;37.782;2022-12-07T08:26:04;19.27;;;9.13;;
33421;SDS011;19763;55.798;37.782;2022-12-07T08:28:35;15.90;;;8.77;;
33421;SDS011;19763;55.798;37.782;2022-12-07T08:31:05;14.18;;;9.23;;
33421;SDS011;19763;55.798;37.782;2022-12-07T08:33:32;13.88;;;8.10;;
33421;SDS011;19763;55.798;37.782;2022-12-07T08:36:02;14.27;;;9.13;;
33421;SDS011;19763;55.798;37.782;2022-12-07T08:38:34;15.27;;;8.85;;
33421;SDS011;19763;55.798;37.782;2022-12-07T08:41:00;14.88;;;8.40;;
33421;SDS011;19763;55.798;37.782;2022-12-07T08:43:26;13.38;;;8.50;;
33421;SDS011;19763;55.798;37.782;2022-12-07T08:48:32;13.20;;;8.20;;
33421;SDS011;19763;55.798;37.782;2022-12-07T08:51:00;14.70;;;9.00;;
33421;SDS011;19763;55.798;37.782;2022-12-07T08:53:27;15.40;;;8.57;;
33421;SDS011;19763;55.798;37.782;2022-12-07T08:55:54;12.20;;;8.25;;
33421;SDS011;19763;55.798;37.782;2022-12-07T08:58:22;11.07;;;6.85;;
33421;SDS011;19763;55.798;37.782;2022-12-07T09:00:47;13.88;;;9.07;;
33421;SDS011;19763;55.798;37.782;2022-12-07T09:03:13;13.55;;;8.55;;
33421;SDS011;19763;55.798;37.782;2022-12-07T09:05:39;12.13;;;7.35;;
33421;SDS011;19763;55.798;37.782;2022-12-07T09:08:04;11.00;;;6.97;;
33421;SDS011;19763;55.798;37.782;2022-12-07T09:10:31;13.77;;;7.35;;
33421;SDS011;19763;55.798;37.782;2022-12-07T09:12:57;10.48;;;6.75;;
33421;SDS011;19763;55.798;37.782;2022-12-07T09:15:29;11.85;;;6.80;;
33421;SDS011;19763;55.798;37.782;2022-12-07T09:17:55;11.05;;;6.05;;
33421;SDS011;19763;55.798;37.782;2022-12-07T09:20:21;10.65;;;7.32;;
33421;SDS011;19763;55.798;37.782;2022-12-07T09:22:47;10.65;;;6.30;;
33421;SDS011;19763;55.798;37.782;2022-12-07T09:25:12;10.38;;;6.18;;
33421;SDS011;19763;55.798;37.782;2022-12-07T09:27:38;9.68;;;5.97;;
33421;SDS011;19763;55.798;37.782;2022-12-07T09:30:04;10.85;;;6.78;;
33421;SDS011;19763;55.798;37.782;2022-12-07T09:32:30;10.57;;;6.38;;
33421;SDS011;19763;55.798;37.782;2022-12-07T09:34:56;12.85;;;6.13;;
33421;SDS011;19763;55.798;37.782;2022-12-07T09:37:22;12.65;;;5.70;;
33421;SDS011;19763;55.798;37.782;2022-12-07T09:39:47;9.18;;;6.28;;
33421;SDS011;19763;55.798;37.782;2022-12-07T09:42:27;9.93;;;6.40;;
33421;SDS011;19763;55.798;37.782;2022-12-07T09:44:55;10.98;;;5.25;;
33421;SDS011;19763;55.798;37.782;2022-12-07T09:47:22;10.68;;;6.55;;
33421;SDS011;19763;55.798;37.782;2022-12-07T09:49:47;12.32;;;6.60;;
33421;SDS011;19763;55.798;37.782;2022-12-07T09:52:20;11.43;;;6.25;;
33421;SDS011;19763;55.798;37.782;2022-12-07T09:54:51;10.25;;;6.00;;
33421;SDS011;19763;55.798;37.782;2022-12-07T09:57:18;11.70;;;5.95;;
33421;SDS011;19763;55.798;37.782;2022-12-07T09:59:59;13.77;;;6.53;;
33421;SDS011;19763;55.798;37.782;2022-12-07T10:05:09;12.20;;;6.43;;
33421;SDS011;19763;55.798;37.782;2022-12-07T10:07:45;10.73;;;6.93;;
33421;SDS011;19763;55.798;37.782;2022-12-07T10:10:23;9.73;;;5.70;;
33421;SDS011;19763;55.798;37.782;2022-12-07T10:12:55;14.75;;;7.22;;
33421;SDS011;19763;55.798;37.782;2022-12-07T10:18:32;11.57;;;6.60;;
33421;SDS011;19763;55.798;37.782;2022-12-07T10:24:01;13.48;;;7.03;;
33421;SDS011;19763;55.798;37.782;2022-12-07T10:26:41;10.38;;;6.68;;
33421;SDS011;19763;55.798;37.782;2022-12-07T10:31:38;11.48;;;6.78;;
33421;SDS011;19763;55.798;37.782;2022-12-07T10:34:11;11.15;;;6.53;;
33421;SDS011;19763;55.798;37.782;2022-12-07T10:36:47;11.20;;;6.38;;
33421;SDS011;19763;55.798;37.782;2022-12-07T10:39:13;14.82;;;7.50;;
33421;SDS011;19763;55.798;37.782;2022-12-07T10:41:53;10.82;;;6.45;;
33421;SDS011;19763;55.798;37.782;2022-12-07T10:44:22;16.08;;;6.85;;
33421;SDS011;19763;55.798;37.782;2022-12-07T10:55:17;10.48;;;6.70;;
33421;SDS011;19763;55.798;37.782;2022-12-07T11:11:30;14.30;;;7.30;;
33421;SDS011;19763;55.798;37.782;2022-12-07T11:21:45;11.10;;;6.82;;
33421;SDS011;19763;55.798;37.782;2022-12-07T11:24:24;11.85;;;6.32;;
33421;SDS011;19763;55.798;37.782;2022-12-07T11:38:00;11.98;;;6.50;;
33421;SDS011;19763;55.798;37.782;2022-12-07T11:40:34;12.15;;;7.43;;
33421;SDS011;19763;55.798;37.782;2022-12-07T11:43:05;11.23;;;7.30;;
33421;SDS011;19763;55.798;37.782;2022-12-07T11:45:44;10.38;;;6.78;;
33421;SDS011;19763;55.798;37.782;2022-12-07T11:56:05;13.85;;;6.82;;
33421;SDS011;19763;55.798;37.782;2022-12-07T12:03:52;12.10;;;7.25;;
33421;SDS011;19763;55.798;37.782;2022-12-07T12:06:22;12.00;;;7.15;;
33421;SDS011;19763;55.798;37.782;2022-12-07T12:09:09;13.70;;;8.00;;
33421;SDS011;19763;55.798;37.782;2022-12-07T12:20:17;14.93;;;7.88;;
33421;SDS011;19763;55.798;37.782;2022-12-07T12:22:45;13.88;;;7.50;;
33421;SDS011;19763;55.798;37.782;2022-12-07T12:25:28;17.15;;;8.77;;
33421;SDS011;19763;55.798;37.782;2022-12-07T12:28:00;13.52;;;8.18;;
33421;SDS011;19763;55.798;37.782;2022-12-07T12:30:31;14.27;;;7.30;;
33421;SDS011;19763;55.798;37.782;2022-12-07T12:33:15;16.58;;;8.43;;
33421;SDS011;19763;55.798;37.782;2022-12-07T12:36:17;13.07;;;7.97;;
33421;SDS011;19763;55.798;37.782;2022-12-07T12:46:54;15.68;;;7.85;;
33421;SDS011;19763;55.798;37.782;2022-12-07T12:51:46;13.13;;;8.88;;
33421;SDS011;19763;55.798;37.782;2022-12-07T13:01:54;12.52;;;7.93;;
33421;SDS011;19763;55.798;37.782;2022-12-07T13:18:34;18.17;;;9.02;;
33421;SDS011;19763;55.798;37.782;2022-12-07T13:23:37;17.75;;;10.15;;
33421;SDS011;19763;55.798;37.782;2022-12-07T13:28:47;16.45;;;9.52;;
33421;SDS011;19763;55.798;37.782;2022-12-07T13:33:59;15.55;;;9.60;;
33421;SDS011;19763;55.798;37.782;2022-12-07T13:36:26;17.02;;;9.65;;
33421;SDS011;19763;55.798;37.782;2022-12-07T13:39:01;16.33;;;9.40;;
33421;SDS011;19763;55.798;37.782;2022-12-07T13:41:42;16.38;;;10.63;;
33421;SDS011;19763;55.798;37.782;2022-12-07T13:44:14;14.77;;;8.65;;
33421;SDS011;19763;55.798;37.782;2022-12-07T13:49:22;14.93;;;9.32;;
33421;SDS011;19763;55.798;37.782;2022-12-07T13:51:49;18.83;;;10.05;;
33421;SDS011;19763;55.798;37.782;2022-12-07T13:54:15;17.98;;;10.02;;
33421;SDS011;19763;55.798;37.782;2022-12-07T13:56:42;15.30;;;10.00;;
33421;SDS011;19763;55.798;37.782;2022-12-07T13:59:16;16.00;;;9.30;;
33421;SDS011;19763;55.798;37.782;2022-12-07T14:01:50;17.10;;;10.00;;
33421;SDS011;19763;55.798;37.782;2022-12-07T14:06:59;17.85;;;9.80;;
33421;SDS011;19763;55.798;37.782;2022-12-07T14:09:27;21.45;;;10.35;;
33421;SDS011;19763;55.798;37.782;2022-12-07T14:11:55;18.67;;;11.02;;
33421;SDS011;19763;55.798;37.782;2022-12-07T14:14:31;16.02;;;9.25;;
33421;SDS011;19763;55.798;37.782;2022-12-07T14:17:16;17.35;;;9.93;;
33421;SDS011;19763;55.798;37.782;2022-12-07T14:19:51;15.45;;;10.43;;
33421;SDS011;19763;55.798;37.782;2022-12-07T14:22:22;15.52;;;9.38;;
33421;SDS011;19763;55.798;37.782;2022-12-07T14:25:00;18.35;;;10.32;;
33421;SDS011;19763;55.798;37.782;2022-12-07T14:27:39;18.05;;;10.43;;
33421;SDS011;19763;55.798;37.782;2022-12-07T14:30:15;18.45;;;9.80;;
33421;SDS011;19763;55.798;37.782;2022-12-07T14:32:43;16.60;;;10.60;;
33421;SDS011;19763;55.798;37.782;2022-12-07T14:35:14;21.25;;;10.25;;
33421;SDS011;19763;55.798;37.782;2022-12-07T14:37:42;18.55;;;10.52;;
33421;SDS011;19763;55.798;37.782;2022-12-07T14:40:13;15.85;;;10.45;;
33421;SDS011;19763;55.798;37.782;2022-12-07T14:45:12;15.13;;;8.93;;
33421;SDS011;19763;55.798;37.782;2022-12-07T14:47:43;27.52;;;11.38;;
33421;SDS011;19763;55.798;37.782;2022-12-07T14:50:11;18.17;;;9.55;;
33421;SDS011;19763;55.798;37.782;2022-12-07T14:55:30;18.17;;;8.77;;
33421;SDS011;19763;55.798;37.782;2022-12-07T14:57:55;16.05;;;8.90;;
33421;SDS011;19763;55.798;37.782;2022-12-07T15:00:22;16.42;;;9.00;;
33421;SDS011;19763;55.798;37.782;2022-12-07T15:02:50;19.17;;;10.02;;
33421;SDS011;19763;55.798;37.782;2022-12-07T15:05:17;15.48;;;9.50;;
33421;SDS011;19763;55.798;37.782;2022-12-07T15:07:43;17.98;;;10.90;;
33421;SDS011;19763;55.798;37.782;2022-12-07T15:10:17;16.77;;;9.68;;
33421;SDS011;19763;55.798;37.782;2022-12-07T15:12:57;17.13;;;9.63;;
33421;SDS011;19763;55.798;37.782;2022-12-07T15:15:47;16.73;;;10.25;;
33421;SDS011;19763;55.798;37.782;2022-12-07T15:18:14;17.25;;;9.65;;
33421;SDS011;19763;55.798;37.782;2022-12-07T15:20:40;16.42;;;9.60;;
33421;SDS011;19763;55.798;37.782;2022-12-07T15:23:06;18.15;;;10.30;;
33421;SDS011;19763;55.798;37.782;2022-12-07T15:25:32;17.73;;;9.82;;
33421;SDS011;19763;55.798;37.782;2022-12-07T15:27:58;16.48;;;10.15;;
33421;SDS011;19763;55.798;37.782;2022-12-07T15:30:24;17.30;;;10.05;;
33421;SDS011;19763;55.798;37.782;2022-12-07T15:32:53;22.75;;;11.00;;
33421;SDS011;19763;55.798;37.782;2022-12-07T15:35:19;18.45;;;10.30;;
33421;SDS011;19763;55.798;37.782;2022-12-07T15:37:45;16.27;;;8.95;;
33421;SDS011;19763;55.798;37.782;2022-12-07T15:40:11;17.15;;;10.15;;
33421;SDS011;19763;55.798;37.782;2022-12-07T15:42:38;17.65;;;9.25;;
33421;SDS011;19763;55.798;37.782;2022-12-07T15:45:04;15.30;;;9.77;;
33421;SDS011;19763;55.798;37.782;2022-12-07T15:47:33;17.08;;;8.95;;
33421;SDS011;19763;55.798;37.782;2022-12-07T15:50:02;14.45;;;9.07;;
33421;SDS011;19763;55.798;37.782;2022-12-07T15:52:29;14.38;;;8.82;;
33421;SDS011;19763;55.798;37.782;2022-12-07T15:54:56;15.63;;;7.68;;
33421;SDS011;19763;55.798;37.782;2022-12-07T15:57:22;17.27;;;9.57;;
33421;SDS011;19763;55.798;37.782;2022-12-07T15:59:47;16.55;;;9.70;;
33421;SDS011;19763;55.798;37.782;2022-12-07T16:02:13;15.93;;;9.18;;
33421;SDS011;19763;55.798;37.782;2022-12-07T16:04:39;17.50;;;10.20;;
33421;SDS011;19763;55.798;37.782;2022-12-07T16:07:05;17.92;;;8.65;;
33421;SDS011;19763;55.798;37.782;2022-12-07T16:09:30;17.75;;;9.77;;
33421;SDS011;19763;55.798;37.782;2022-12-07T16:11:56;16.90;;;10.48;;
33421;SDS011;19763;55.798;37.782;2022-12-07T16:14:22;18.08;;;9.63;;
33421;SDS011;19763;55.798;37.782;2022-12-07T16:16:48;17.48;;;9.55;;
33421;SDS011;19763;55.798;37.782;2022-12-07T16:19:14;14.75;;;8.93;;
33421;SDS011;19763;55.798;37.782;2022-12-07T16:21:40;17.50;;;9.75;;
33421;SDS011;19763;55.798;37.782;2022-12-07T16:24:06;18.83;;;11.80;;
33421;SDS011;19763;55.798;37.782;2022-12-07T16:26:32;19.27;;;9.65;;
33421;SDS011;19763;55.798;37.782;2022-12-07T16:28:58;15.57;;;9.68;;
33421;SDS011;19763;55.798;37.782;2022-12-07T16:31:25;18.08;;;8.57;;
33421;SDS011;19763;55.798;37.782;2022-12-07T16:33:56;17.50;;;9.20;;
33421;SDS011;19763;55.798;37.782;2022-12-07T16:36:23;18.10;;;9.48;;
33421;SDS011;19763;55.798;37.782;2022-12-07T16:38:50;17.05;;;9.50;;
33421;SDS011;19763;55.798;37.782;2022-12-07T16:41:16;15.65;;;9.30;;
33421;SDS011;19763;55.798;37.782;2022-12-07T16:43:42;17.75;;;10.55;;
33421;SDS011;19763;55.798;37.782;2022-12-07T16:46:08;16.08;;;8.10;;
33421;SDS011;19763;55.798;37.782;2022-12-07T16:51:20;19.95;;;9.90;;
33421;SDS011;19763;55.798;37.782;2022-12-07T16:53:45;19.08;;;9.25;;
33421;SDS011;19763;55.798;37.782;2022-12-07T16:56:12;17.55;;;9.93;;
33421;SDS011;19763;55.798;37.782;2022-12-07T16:58:39;18.38;;;9.30;;
33421;SDS011;19763;55.798;37.782;2022-12-07T17:01:11;15.88;;;8.80;;
33421;SDS011;19763;55.798;37.782;2022-12-07T17:03:49;12.63;;;8.40;;
33421;SDS011;19763;55.798;37.782;2022-12-07T17:06:19;17.25;;;8.38;;
33421;SDS011;19763;55.798;37.782;2022-12-07T17:08:46;15.32;;;8.73;;
33421;SDS011;19763;55.798;37.782;2022-12-07T17:11:14;17.98;;;8.82;;
33421;SDS011;19763;55.798;37.782;2022-12-07T17:16:28;14.60;;;9.00;;